Time;durP1;ratioP1;P1;durP2;ratioP2;P2;SDS_P1;SDS_P2;PMS_P1;PMS_P2;Temp;Humidity;BMP_temperature;BMP_pressure;BME280_temperature;BME280_humidity;BME280_pressure;Samples;Min_cycle;Max_cycle;Signal;HPM_P1;HPM_P2
2023/12/22 00:02:23;;;;;;;0.40;0.40;;;;;;;1.19;100.00;93127.47;5005525;28;20256;-70
2023/12/22 00:04:50;;;;;;;0.20;0.20;;;;;;;0.94;100.00;93130.78;5000629;28;20201;-71
2023/12/22 00:07:16;;;;;;;0.70;0.40;;;;;;;0.82;100.00;93133.22;4997957;28;20237;-71
2023/12/22 00:09:43;;;;;;;0.93;0.73;;;;;;;0.83;100.00;93132.09;5000413;28;20299;-71
2023/12/22 00:12:11;;;;;;;0.30;0.30;;;;;;;0.92;100.00;93127.63;5004202;28;20201;-70
2023/12/22 00:14:40;;;;;;;8.32;3.33;;;;;;;0.83;100.00;93129.41;5000892;28;20206;-71
2023/12/22 00:17:07;;;;;;;6.72;3.10;;;;;;;0.71;100.00;93128.09;5004142;28;20205;-71
2023/12/22 00:19:34;;;;;;;7.00;3.92;;;;;;;0.81;100.00;93119.09;5002884;28;20205;-70
2023/12/22 00:22:03;;;;;;;9.05;4.13;;;;;;;0.78;100.00;93110.91;5006258;28;20215;-71
2023/12/22 00:24:29;;;;;;;6.35;3.10;;;;;;;0.95;100.00;93100.38;5006538;28;20580;-70
2023/12/22 00:26:56;;;;;;;6.45;3.20;;;;;;;0.93;100.00;93103.34;5009677;28;20201;-72
2023/12/22 00:29:24;;;;;;;5.85;2.90;;;;;;;0.96;100.00;93101.91;5002799;28;20256;-71
2023/12/22 00:31:51;;;;;;;0.20;0.20;;;;;;;0.97;100.00;93100.81;5003582;28;20610;-71
2023/12/22 00:34:19;;;;;;;0.20;0.20;;;;;;;1.20;100.00;93091.72;5009283;28;20201;-71
2023/12/22 00:36:46;;;;;;;0.57;0.57;;;;;;;1.27;100.00;93086.72;5003198;28;20208;-71
2023/12/22 00:39:12;;;;;;;0.20;0.20;;;;;;;1.18;100.00;93072.56;5004388;28;20194;-70
2023/12/22 00:41:39;;;;;;;1.23;1.08;;;;;;;1.24;100.00;93065.97;5002477;28;20200;-71
2023/12/22 00:44:06;;;;;;;0.30;0.30;;;;;;;1.35;100.00;93077.97;5003332;28;20212;-70
2023/12/22 00:46:34;;;;;;;0.30;0.30;;;;;;;1.38;100.00;93065.88;5006405;28;20209;-71
2023/12/22 00:49:01;;;;;;;0.25;0.25;;;;;;;1.17;100.00;93044.31;5003202;28;20229;-70
2023/12/22 00:51:28;;;;;;;0.30;0.30;;;;;;;1.39;100.00;93086.91;5003565;28;20213;-70
2023/12/22 00:53:55;;;;;;;4.30;1.65;;;;;;;1.29;100.00;93046.41;5004195;28;20555;-71
2023/12/22 00:56:21;;;;;;;0.20;0.20;;;;;;;1.24;100.00;93049.97;5003963;28;20573;-70
2023/12/22 00:58:48;;;;;;;0.20;0.20;;;;;;;1.32;100.00;93051.91;5003240;28;20289;-72
2023/12/22 01:01:15;;;;;;;6.20;2.97;;;;;;;1.40;100.00;93059.13;5004465;28;20201;-70
2023/12/22 01:03:43;;;;;;;3.33;2.38;;;;;;;1.25;100.00;93040.88;5004024;28;20545;-71
2023/12/22 01:06:10;;;;;;;4.78;3.15;;;;;;;1.26;100.00;93055.78;5001684;28;20210;-70
2023/12/22 01:08:38;;;;;;;6.32;3.42;;;;;;;1.41;100.00;93071.38;5008746;28;20229;-72
2023/12/22 01:11:05;;;;;;;6.30;2.63;;;;;;;1.63;100.00;93067.06;5004929;28;20241;-71
2023/12/22 01:13:32;;;;;;;0.35;0.35;;;;;;;1.56;100.00;93072.84;5006876;28;20213;-72
2023/12/22 01:15:59;;;;;;;0.20;0.20;;;;;;;1.68;100.00;93074.91;5006041;28;20197;-72
2023/12/22 01:18:28;;;;;;;0.22;0.22;;;;;;;1.68;100.00;93057.03;5004681;28;20213;-73
2023/12/22 01:20:57;;;;;;;0.50;0.50;;;;;;;1.98;100.00;93074.03;5001469;28;20218;-74
2023/12/22 01:23:25;;;;;;;3.22;1.20;;;;;;;2.25;100.00;93061.50;5004210;28;20216;-71
2023/12/22 01:25:51;;;;;;;2.83;0.77;;;;;;;2.17;100.00;93062.28;5001959;28;20300;-72
2023/12/22 01:28:18;;;;;;;0.20;0.20;;;;;;;1.83;100.00;93039.78;5001791;28;20284;-73
2023/12/22 01:30:45;;;;;;;0.40;0.40;;;;;;;2.00;100.00;93060.38;5000965;28;20666;-72
2023/12/22 01:33:12;;;;;;;0.20;0.20;;;;;;;2.05;100.00;93047.66;5007899;28;20212;-71
2023/12/22 01:35:39;;;;;;;0.20;0.20;;;;;;;2.29;100.00;93057.88;5003952;28;20218;-71
2023/12/22 01:38:07;;;;;;;0.45;0.45;;;;;;;2.38;100.00;93055.22;5006604;28;20272;-73
2023/12/22 01:40:34;;;;;;;0.20;0.20;;;;;;;2.35;99.99;93045.94;5004350;28;20205;-72
2023/12/22 01:43:02;;;;;;;2.72;0.77;;;;;;;2.35;99.41;93023.78;5006161;28;20217;-72
2023/12/22 01:45:29;;;;;;;0.50;0.50;;;;;;;2.41;100.00;93033.22;5001066;28;20205;-70
2023/12/22 01:47:56;;;;;;;0.20;0.20;;;;;;;2.25;98.47;93024.09;5003542;28;20313;-72
2023/12/22 01:50:22;;;;;;;0.20;0.20;;;;;;;2.02;100.00;93016.25;5007926;28;20217;-72
2023/12/22 01:52:49;;;;;;;1.42;1.10;;;;;;;2.21;100.00;93012.47;5002107;28;20209;-72
2023/12/22 01:55:19;;;;;;;0.20;0.20;;;;;;;1.84;99.61;93014.66;5002235;28;20546;-73
2023/12/22 01:57:46;;;;;;;0.20;0.20;;;;;;;2.06;100.00;93001.16;5000258;28;20213;-72
2023/12/22 02:00:14;;;;;;;0.32;0.32;;;;;;;2.12;100.00;93010.59;4999841;28;20572;-71
2023/12/22 02:02:43;;;;;;;3.10;1.38;;;;;;;1.66;100.00;93024.53;4997421;28;20624;-72
2023/12/22 02:05:11;;;;;;;1.60;1.33;;;;;;;1.94;100.00;92985.00;5006826;28;20236;-72
2023/12/22 02:07:40;;;;;;;0.20;0.20;;;;;;;1.64;100.00;93015.28;5001250;28;20292;-72
2023/12/22 02:10:08;;;;;;;0.20;0.20;;;;;;;1.91;100.00;93009.66;5005772;28;20288;-72
2023/12/22 02:12:38;;;;;;;0.30;0.30;;;;;;;2.11;100.00;93001.00;5006501;28;20209;-74
2023/12/22 02:15:06;;;;;;;0.20;0.20;;;;;;;1.83;100.00;93010.41;5002390;28;20201;-72
2023/12/22 02:17:40;;;;;;;0.28;0.28;;;;;;;1.87;100.00;93008.72;5004358;28;20215;-73
2023/12/22 02:20:08;;;;;;;0.20;0.20;;;;;;;1.85;100.00;93010.91;5002565;28;20212;-73
2023/12/22 02:22:37;;;;;;;0.30;0.30;;;;;;;2.00;100.00;92994.44;5002175;28;20228;-74
2023/12/22 02:25:04;;;;;;;0.50;0.50;;;;;;;2.19;100.00;93004.75;5002073;28;20209;-74
2023/12/22 02:27:38;;;;;;;0.63;0.63;;;;;;;2.33;100.00;93004.59;5003763;28;20213;-71
2023/12/22 02:30:09;;;;;;;0.55;0.55;;;;;;;2.52;100.00;92997.03;4998986;28;20205;-75
2023/12/22 02:32:39;;;;;;;2.17;0.60;;;;;;;2.40;98.89;92999.59;5004004;28;20225;-73
2023/12/22 02:35:13;;;;;;;0.52;0.52;;;;;;;2.17;98.28;92996.31;5001702;28;20198;-73
2023/12/22 02:37:42;;;;;;;0.20;0.20;;;;;;;2.24;97.90;92995.81;5005681;28;20751;-71
2023/12/22 02:40:10;;;;;;;0.50;0.50;;;;;;;2.19;97.26;92990.66;5002090;28;20205;-73
2023/12/22 02:42:38;;;;;;;0.30;0.30;;;;;;;2.19;98.51;92993.31;5002388;28;20225;-71
2023/12/22 02:45:07;;;;;;;0.40;0.40;;;;;;;2.34;98.63;92982.13;5002157;28;20264;-73
2023/12/22 02:47:34;;;;;;;0.10;0.10;;;;;;;2.31;97.09;92993.47;5001053;28;20205;-72
2023/12/22 02:50:00;;;;;;;1.38;1.17;;;;;;;2.39;97.31;92998.00;5003807;28;20609;-71
2023/12/22 02:52:27;;;;;;;0.43;0.43;;;;;;;2.28;97.74;92992.22;5003000;28;20596;-72
2023/12/22 02:54:55;;;;;;;0.20;0.20;;;;;;;2.35;98.25;92983.69;5002358;28;20204;-71
2023/12/22 02:57:22;;;;;;;0.57;0.57;;;;;;;2.40;98.07;92965.63;5000165;28;20205;-70
2023/12/22 02:59:49;;;;;;;0.57;0.57;;;;;;;2.53;98.53;92971.09;4999363;28;20198;-71
2023/12/22 03:02:16;;;;;;;0.30;0.30;;;;;;;2.39;98.11;92965.94;5003733;28;20294;-70
2023/12/22 03:04:43;;;;;;;0.25;0.25;;;;;;;2.61;97.56;92967.63;5005519;28;20212;-71
2023/12/22 03:07:10;;;;;;;0.20;0.20;;;;;;;2.57;96.48;92948.78;5004369;28;20225;-71
2023/12/22 03:09:36;;;;;;;0.65;0.65;;;;;;;2.35;96.53;92944.41;4998246;28;20641;-72
2023/12/22 03:12:05;;;;;;;0.57;0.57;;;;;;;2.56;98.10;92957.13;5001712;28;20248;-71
2023/12/22 03:14:33;;;;;;;1.10;0.85;;;;;;;2.43;97.27;92948.19;4998408;28;20209;-72
2023/12/22 03:17:00;;;;;;;0.40;0.40;;;;;;;2.31;97.53;92954.19;5002395;28;20209;-71
2023/12/22 03:19:27;;;;;;;0.30;0.30;;;;;;;2.22;99.24;92960.63;5004357;28;20205;-73
2023/12/22 03:21:54;;;;;;;0.20;0.20;;;;;;;2.14;100.00;92964.88;4998460;28;20204;-72
2023/12/22 03:24:22;;;;;;;0.38;0.38;;;;;;;2.03;100.00;92964.44;4998947;28;20216;-73
2023/12/22 03:26:49;;;;;;;0.20;0.20;;;;;;;2.12;100.00;92972.44;5001192;28;20214;-73
2023/12/22 03:29:17;;;;;;;0.20;0.20;;;;;;;2.31;100.00;92964.09;5005582;28;20221;-75
2023/12/22 03:31:44;;;;;;;0.20;0.20;;;;;;;2.33;99.77;92969.88;4997466;28;20282;-74
2023/12/22 03:34:11;;;;;;;0.30;0.30;;;;;;;2.51;99.47;92984.78;4997501;28;20258;-73
2023/12/22 03:36:38;;;;;;;0.30;0.30;;;;;;;2.61;99.17;92976.41;4998092;28;20308;-73
2023/12/22 03:39:05;;;;;;;0.20;0.20;;;;;;;2.90;99.02;92974.94;5002910;28;20200;-73
2023/12/22 03:41:32;;;;;;;0.32;0.32;;;;;;;2.67;96.71;92967.16;5004280;28;20227;-74
2023/12/22 03:43:59;;;;;;;0.43;0.43;;;;;;;2.55;98.07;92975.03;5002438;28;20201;-73
2023/12/22 03:46:27;;;;;;;0.30;0.30;;;;;;;2.77;98.74;92960.66;4999291;28;20296;-73
2023/12/22 03:48:54;;;;;;;0.43;0.43;;;;;;;2.85;97.92;92955.28;5004657;28;20221;-73
2023/12/22 03:51:21;;;;;;;0.38;0.38;;;;;;;2.74;96.77;92956.72;5004648;28;20293;-73
2023/12/22 03:53:47;;;;;;;0.52;0.52;;;;;;;2.97;98.27;92953.84;5001669;28;20205;-75
2023/12/22 03:56:14;;;;;;;0.22;0.22;;;;;;;3.04;98.12;92962.13;5006208;28;20600;-73
2023/12/22 03:58:41;;;;;;;0.25;0.25;;;;;;;3.25;97.26;92963.00;5003907;28;20641;-72
2023/12/22 04:01:08;;;;;;;1.10;1.05;;;;;;;3.17;97.01;92961.13;5003857;28;20649;-75
2023/12/22 04:03:36;;;;;;;0.65;0.65;;;;;;;3.31;96.39;92960.91;5006133;28;20240;-74
2023/12/22 04:06:03;;;;;;;0.20;0.20;;;;;;;3.36;95.28;92966.84;5008021;28;20203;-73
2023/12/22 04:08:30;;;;;;;0.20;0.20;;;;;;;3.51;95.23;92968.19;5004168;28;20243;-73
2023/12/22 04:10:57;;;;;;;0.35;0.35;;;;;;;3.66;95.24;92969.53;5002453;28;20224;-77
2023/12/22 04:13:24;;;;;;;0.95;0.95;;;;;;;6.24;100.00;92955.88;5004459;28;20206;-73
2023/12/22 04:15:51;;;;;;;0.30;0.30;;;;;;;9.69;100.00;92931.84;5003963;28;20201;-74
2023/12/22 04:18:18;;;;;;;0.38;0.38;;;;;;;10.75;100.00;92931.72;5004714;28;20193;-74
2023/12/22 04:20:46;;;;;;;0.38;0.38;;;;;;;8.98;88.71;92936.06;5006260;28;20217;-74
2023/12/22 04:23:13;;;;;;;0.70;0.70;;;;;;;7.40;90.36;92935.03;5005506;28;20588;-75
2023/12/22 04:25:39;;;;;;;0.30;0.30;;;;;;;6.46;90.32;92934.94;5006080;28;20296;-75
2023/12/22 04:28:06;;;;;;;0.40;0.40;;;;;;;5.31;91.06;92938.09;5000645;28;20209;-74
2023/12/22 04:30:34;;;;;;;0.30;0.30;;;;;;;4.99;92.57;92945.91;5005492;28;20562;-73
2023/12/22 04:33:00;;;;;;;0.30;0.30;;;;;;;4.22;92.47;92939.47;5002361;28;20626;-75
2023/12/22 04:35:27;;;;;;;0.95;0.95;;;;;;;3.70;95.42;92940.97;5000371;28;20288;-76
2023/12/22 04:37:56;;;;;;;1.17;1.15;;;;;;;3.65;95.92;92946.53;5003235;28;20201;-76
2023/12/22 04:40:22;;;;;;;0.68;0.68;;;;;;;3.72;96.92;92952.16;5003472;28;20206;-75
2023/12/22 04:42:49;;;;;;;0.20;0.20;;;;;;;3.60;95.82;92933.34;5000950;28;20212;-73
2023/12/22 04:45:17;;;;;;;0.22;0.22;;;;;;;3.39;97.39;92936.78;5008836;28;20205;-75
2023/12/22 04:47:45;;;;;;;0.60;0.60;;;;;;;3.41;96.59;92937.25;5002979;28;20803;-74
2023/12/22 04:50:11;;;;;;;0.75;0.75;;;;;;;3.15;97.16;92939.25;5001606;28;20225;-74
2023/12/22 04:52:38;;;;;;;0.30;0.30;;;;;;;3.32;100.00;92933.81;5002380;28;20267;-75
2023/12/22 04:55:07;;;;;;;0.28;0.28;;;;;;;2.86;100.00;92926.69;5000883;28;20206;-74
2023/12/22 04:57:34;;;;;;;0.20;0.20;;;;;;;3.00;100.00;92926.47;5006313;28;20229;-73
2023/12/22 05:00:01;;;;;;;0.85;0.85;;;;;;;2.88;100.00;92939.69;4999719;28;20197;-77
2023/12/22 05:02:29;;;;;;;0.30;0.30;;;;;;;2.72;100.00;92932.22;5004496;28;20217;-73
2023/12/22 05:04:55;;;;;;;0.20;0.20;;;;;;;2.85;100.00;92925.09;5006676;28;20264;-74
2023/12/22 05:07:22;;;;;;;0.20;0.20;;;;;;;2.68;100.00;92941.97;5009431;28;20235;-73
2023/12/22 05:09:49;;;;;;;1.88;1.75;;;;;;;2.46;100.00;92912.81;5013353;28;20221;-74
2023/12/22 05:12:17;;;;;;;0.30;0.30;;;;;;;2.55;100.00;92916.25;5004530;28;20205;-74
2023/12/22 05:14:44;;;;;;;3.05;1.02;;;;;;;2.48;100.00;92915.94;5003503;28;20214;-73
2023/12/22 05:17:11;;;;;;;0.22;0.22;;;;;;;2.67;100.00;92923.59;5012706;28;20209;-75
2023/12/22 05:19:39;;;;;;;0.20;0.20;;;;;;;2.52;100.00;92916.88;5012429;28;20205;-72
2023/12/22 05:22:06;;;;;;;0.80;0.80;;;;;;;2.44;100.00;92917.69;5002721;28;20205;-72
2023/12/22 05:24:32;;;;;;;0.40;0.40;;;;;;;2.57;100.00;92924.72;5006250;28;20236;-73
2023/12/22 05:26:59;;;;;;;0.60;0.60;;;;;;;2.65;100.00;92899.84;4990312;28;20290;-76
2023/12/22 05:31:55;;;;;;;0.20;0.20;;;;;;;2.94;100.00;92922.38;5053774;22;20239;-79
2023/12/22 05:34:22;;;;;;;0.75;0.75;;;;;;;2.76;100.00;92932.34;5051329;28;20295;-79
2023/12/22 05:36:49;;;;;;;0.20;0.20;;;;;;;2.66;100.00;92933.50;5051932;28;20231;-80
2023/12/22 05:39:16;;;;;;;0.40;0.40;;;;;;;2.74;100.00;92930.00;5052208;28;20226;-79
2023/12/22 05:41:43;;;;;;;0.20;0.20;;;;;;;2.93;100.00;92947.56;5052257;28;20211;-81
2023/12/22 05:44:10;;;;;;;2.97;0.60;;;;;;;2.89;100.00;92946.63;5038140;28;21211;-78
2023/12/22 05:46:37;;;;;;;0.30;0.30;;;;;;;3.02;100.00;92929.56;5051399;28;20580;-79
2023/12/22 05:49:06;;;;;;;0.20;0.20;;;;;;;2.99;100.00;92919.53;5051443;28;20227;-79
2023/12/22 05:51:39;;;;;;;0.35;0.35;;;;;;;2.91;100.00;92902.41;5051768;28;20200;-79
2023/12/22 05:54:06;;;;;;;0.20;0.20;;;;;;;2.92;100.00;92920.03;5051367;28;20253;-79
2023/12/22 05:56:33;;;;;;;0.20;0.20;;;;;;;2.82;100.00;92918.50;5051796;28;20651;-80
2023/12/22 05:59:01;;;;;;;0.63;0.63;;;;;;;2.74;100.00;92916.63;5051052;28;20353;-80
2023/12/22 06:01:27;;;;;;;1.15;1.15;;;;;;;2.67;100.00;92924.38;5049098;28;20561;-79
2023/12/22 06:03:54;;;;;;;0.93;0.93;;;;;;;2.68;100.00;92909.13;5051795;28;20207;-79
2023/12/22 06:06:23;;;;;;;0.50;0.50;;;;;;;2.70;100.00;92922.97;5051477;28;20215;-79
2023/12/22 06:08:50;;;;;;;0.63;0.63;;;;;;;2.59;100.00;92919.84;5050909;28;20207;-80
2023/12/22 06:11:17;;;;;;;1.33;0.77;;;;;;;2.75;100.00;92926.22;5051116;28;20211;-79
2023/12/22 06:13:43;;;;;;;0.77;0.77;;;;;;;2.82;100.00;92931.88;5051488;28;20211;-79
2023/12/22 06:16:14;;;;;;;0.43;0.43;;;;;;;2.74;100.00;92946.03;5050958;28;20638;-78
2023/12/22 06:18:41;;;;;;;0.20;0.20;;;;;;;2.81;100.00;92941.00;5051092;28;20290;-79
2023/12/22 06:21:07;;;;;;;0.82;0.82;;;;;;;2.88;100.00;92935.13;5050860;28;20657;-80
2023/12/22 06:23:36;;;;;;;0.20;0.20;;;;;;;2.78;100.00;92925.59;5051215;28;20613;-78
2023/12/22 06:26:03;;;;;;;0.45;0.45;;;;;;;3.00;100.00;92937.16;5044341;28;20286;-78
2023/12/22 06:28:30;;;;;;;0.30;0.30;;;;;;;2.84;100.00;92940.34;5041460;28;20227;-78
2023/12/22 06:30:57;;;;;;;0.10;0.10;;;;;;;3.11;100.00;92941.03;5045530;28;20243;-78
2023/12/22 06:33:23;;;;;;;0.47;0.47;;;;;;;3.11;100.00;92949.06;5051044;28;20595;-79
2023/12/22 06:35:53;;;;;;;0.30;0.30;;;;;;;3.12;100.00;92943.38;5045878;28;20438;-78
2023/12/22 06:38:20;;;;;;;0.63;0.63;;;;;;;3.17;100.00;92942.41;5041758;28;20303;-79
2023/12/22 06:40:48;;;;;;;2.25;2.05;;;;;;;2.95;100.00;92937.31;5050670;28;20207;-83
2023/12/22 06:43:15;;;;;;;0.20;0.20;;;;;;;3.06;100.00;92941.19;5050679;28;20211;-83
2023/12/22 06:45:42;;;;;;;0.40;0.40;;;;;;;2.97;100.00;92948.50;5049007;28;20228;-81
2023/12/22 06:48:10;;;;;;;0.63;0.63;;;;;;;3.14;100.00;92943.06;5050647;28;20211;-80
2023/12/22 06:50:39;;;;;;;0.57;0.57;;;;;;;3.22;100.00;92942.22;5050960;28;20318;-78
2023/12/22 06:53:07;;;;;;;0.65;0.65;;;;;;;3.23;100.00;92949.16;5032010;28;20282;-79
2023/12/22 06:55:34;;;;;;;0.60;0.45;;;;;;;3.47;100.00;92949.31;5049438;28;20578;-77
2023/12/22 06:58:02;;;;;;;6.13;1.17;;;;;;;3.49;100.00;92951.66;5049914;28;20583;-79
2023/12/22 07:00:29;;;;;;;3.53;1.10;;;;;;;3.64;100.00;92944.97;5049942;28;20295;-78
2023/12/22 07:02:56;;;;;;;0.40;0.40;;;;;;;3.54;100.00;92936.22;5050223;28;20236;-76
2023/12/22 07:05:37;;;;;;;0.38;0.38;;;;;;;3.73;100.00;92954.50;5049013;28;20302;-76
2023/12/22 07:08:27;;;;;;;0.30;0.30;;;;;;;3.56;100.00;92955.38;5045195;28;20636;-79
2023/12/22 07:10:54;;;;;;;1.30;1.20;;;;;;;3.78;100.00;92953.53;5050132;28;20540;-81
2023/12/22 07:13:22;;;;;;;0.47;0.47;;;;;;;3.55;100.00;92943.13;5050597;28;20303;-81
2023/12/22 07:15:49;;;;;;;0.35;0.35;;;;;;;3.44;100.00;92958.00;5050624;28;20652;-80
2023/12/22 07:18:16;;;;;;;0.30;0.30;;;;;;;3.45;100.00;92959.56;5050484;28;20219;-79
2023/12/22 07:20:43;;;;;;;0.52;0.52;;;;;;;3.52;100.00;92954.50;5049885;28;20208;-77
2023/12/22 07:23:11;;;;;;;0.20;0.20;;;;;;;3.70;100.00;92957.03;5049577;28;20210;-80
2023/12/22 07:25:38;;;;;;;0.50;0.50;;;;;;;3.75;100.00;92963.00;5050484;28;20211;-80
2023/12/22 07:28:06;;;;;;;0.20;0.20;;;;;;;3.74;100.00;92960.63;5050081;28;20241;-80
2023/12/22 07:30:34;;;;;;;0.77;0.77;;;;;;;3.82;100.00;92954.44;5049525;28;20231;-80
2023/12/22 07:33:01;;;;;;;4.78;2.28;;;;;;;3.93;100.00;92969.00;5050405;28;20208;-79
2023/12/22 07:35:28;;;;;;;0.30;0.30;;;;;;;3.81;100.00;92960.91;5050211;28;20222;-80
2023/12/22 07:37:57;;;;;;;0.90;0.73;;;;;;;3.71;100.00;92972.00;5049661;28;20207;-80
2023/12/22 07:40:23;;;;;;;0.57;0.57;;;;;;;3.73;100.00;92964.41;5049051;28;20526;-79
2023/12/22 07:42:54;;;;;;;0.30;0.30;;;;;;;3.85;100.00;92967.16;5051159;28;20199;-76
2023/12/22 07:45:21;;;;;;;0.20;0.20;;;;;;;3.87;100.00;92962.28;5050498;28;20610;-78
2023/12/22 07:47:49;;;;;;;1.15;0.90;;;;;;;3.96;100.00;92970.25;5051206;28;20203;-77
2023/12/22 07:50:16;;;;;;;0.47;0.47;;;;;;;3.73;100.00;92959.06;5049940;28;20234;-81
2023/12/22 07:52:43;;;;;;;0.68;0.68;;;;;;;3.85;100.00;92977.88;5050594;28;20222;-80
2023/12/22 07:55:10;;;;;;;0.60;0.60;;;;;;;3.91;100.00;92992.66;5050179;28;20668;-81
2023/12/22 07:57:37;;;;;;;0.20;0.20;;;;;;;3.85;100.00;92993.94;5050150;28;20204;-80
2023/12/22 08:00:06;;;;;;;0.93;0.93;;;;;;;3.87;100.00;92997.09;5049741;28;20612;-81
2023/12/22 08:02:33;;;;;;;0.52;0.52;;;;;;;3.72;100.00;92989.63;5050380;28;20653;-79
2023/12/22 08:05:01;;;;;;;0.30;0.30;;;;;;;3.95;100.00;92998.94;5050290;28;20284;-80
2023/12/22 08:07:29;;;;;;;0.35;0.35;;;;;;;3.85;100.00;92993.94;5050251;28;20309;-80
2023/12/22 08:09:56;;;;;;;0.55;0.55;;;;;;;4.07;100.00;93017.75;5049411;28;20289;-81
2023/12/22 08:12:23;;;;;;;5.43;1.42;;;;;;;4.10;100.00;93006.38;5049799;28;20200;-81
2023/12/22 08:14:50;;;;;;;0.50;0.50;;;;;;;4.28;100.00;93007.81;5050031;28;20222;-80
2023/12/22 08:17:17;;;;;;;0.25;0.25;;;;;;;4.19;100.00;93020.50;5049997;28;20726;-80
2023/12/22 08:19:44;;;;;;;0.28;0.28;;;;;;;4.40;100.00;93031.19;5048983;28;20265;-80
2023/12/22 08:22:13;;;;;;;0.32;0.32;;;;;;;4.64;100.00;93022.50;5049743;28;20200;-80
2023/12/22 08:24:41;;;;;;;0.40;0.40;;;;;;;4.46;100.00;93023.75;5048809;28;20269;-81
2023/12/22 08:27:08;;;;;;;0.30;0.30;;;;;;;4.67;100.00;93024.50;5050071;28;20212;-81
2023/12/22 08:29:36;;;;;;;0.93;0.90;;;;;;;4.83;100.00;93021.97;5050057;28;20546;-82
2023/12/22 08:32:04;;;;;;;1.95;0.68;;;;;;;4.45;100.00;93028.34;5049432;28;20242;-81
2023/12/22 08:34:31;;;;;;;0.20;0.20;;;;;;;4.67;100.00;93029.88;5021638;28;20238;-81
2023/12/22 08:36:58;;;;;;;0.77;0.77;;;;;;;4.77;100.00;93024.09;5053606;28;20212;-81
2023/12/22 08:39:26;;;;;;;1.63;1.38;;;;;;;4.61;100.00;93017.78;5040411;28;20207;-80
2023/12/22 08:41:53;;;;;;;0.35;0.35;;;;;;;4.82;100.00;93001.63;5053691;28;20213;-82
2023/12/22 08:44:20;;;;;;;0.40;0.40;;;;;;;5.13;100.00;93019.94;5053939;28;20207;-82
2023/12/22 08:46:46;;;;;;;0.45;0.45;;;;;;;5.13;100.00;93014.56;5053486;28;20675;-82
2023/12/22 08:49:13;;;;;;;0.20;0.20;;;;;;;5.20;100.00;93020.16;5053441;28;20214;-82
2023/12/22 08:51:41;;;;;;;0.90;0.82;;;;;;;5.12;100.00;93015.69;5053296;28;20230;-81
2023/12/22 08:54:07;;;;;;;0.30;0.30;;;;;;;4.85;100.00;93015.19;5053209;28;20292;-82
2023/12/22 08:56:36;;;;;;;0.32;0.32;;;;;;;4.80;100.00;93006.53;5053162;28;20217;-80
2023/12/22 08:59:03;;;;;;;1.00;1.00;;;;;;;4.58;100.00;93016.53;5053052;28;20196;-80
2023/12/22 09:01:29;;;;;;;0.63;0.63;;;;;;;4.75;100.00;93014.81;5049433;28;20200;-81
2023/12/22 09:03:56;;;;;;;0.50;0.50;;;;;;;4.78;100.00;93030.25;5053092;28;20215;-81
2023/12/22 09:06:24;;;;;;;0.30;0.30;;;;;;;4.93;100.00;93032.28;5052885;28;20322;-80
2023/12/22 09:08:52;;;;;;;0.30;0.30;;;;;;;4.98;100.00;93040.94;5053007;28;20207;-81
2023/12/22 09:11:21;;;;;;;0.52;0.52;;;;;;;4.93;100.00;93033.06;5053098;28;20232;-81
2023/12/22 09:13:49;;;;;;;0.43;0.43;;;;;;;4.96;100.00;93047.72;5052896;28;20203;-80
2023/12/22 09:16:21;;;;;;;1.48;1.20;;;;;;;5.12;100.00;93054.03;5052688;28;20641;-81
2023/12/22 09:18:49;;;;;;;0.50;0.50;;;;;;;5.32;100.00;93041.69;5052549;28;20207;-81
2023/12/22 09:21:17;;;;;;;0.20;0.20;;;;;;;5.19;100.00;93051.63;5052171;28;20209;-81
2023/12/22 09:23:46;;;;;;;0.52;0.52;;;;;;;5.51;100.00;93055.34;5053148;28;20199;-80
2023/12/22 09:26:13;;;;;;;0.50;0.50;;;;;;;5.72;100.00;93053.34;5052654;28;20240;-81
2023/12/22 09:28:40;;;;;;;0.30;0.30;;;;;;;5.99;100.00;93051.13;5052492;28;20586;-81
2023/12/22 09:31:09;;;;;;;0.57;0.57;;;;;;;6.09;100.00;93039.91;5051882;28;20254;-80
2023/12/22 09:33:36;;;;;;;0.32;0.32;;;;;;;6.17;100.00;93044.38;5052352;28;20208;-79
2023/12/22 09:36:04;;;;;;;1.83;1.42;;;;;;;5.95;100.00;93044.84;5051708;28;20211;-80
2023/12/22 09:38:30;;;;;;;0.55;0.55;;;;;;;5.86;100.00;93028.06;5052388;28;20214;-79
2023/12/22 09:40:59;;;;;;;1.85;1.33;;;;;;;5.77;100.00;93043.47;5052275;28;20215;-81
2023/12/22 09:43:26;;;;;;;1.08;0.77;;;;;;;5.83;100.00;93037.56;5052143;28;20694;-80
2023/12/22 09:45:57;;;;;;;0.20;0.20;;;;;;;5.98;100.00;93030.75;5051672;28;20211;-80
2023/12/22 09:48:28;;;;;;;0.90;0.57;;;;;;;6.01;100.00;93027.41;5052145;28;20203;-81
2023/12/22 09:50:55;;;;;;;0.65;0.65;;;;;;;5.95;100.00;93013.41;5052273;28;20330;-81
2023/12/22 09:53:22;;;;;;;0.30;0.30;;;;;;;5.80;100.00;93016.75;5051912;28;20230;-80
2023/12/22 09:55:50;;;;;;;0.30;0.30;;;;;;;5.67;100.00;93013.28;5052134;28;20211;-80
2023/12/22 09:58:18;;;;;;;0.80;0.40;;;;;;;5.74;100.00;93011.94;5051750;28;20215;-80
2023/12/22 10:00:45;;;;;;;0.38;0.38;;;;;;;5.41;100.00;93023.56;5052237;28;20212;-80
2023/12/22 10:03:13;;;;;;;0.30;0.30;;;;;;;5.22;100.00;93001.84;5048005;28;20212;-81
2023/12/22 10:05:43;;;;;;;0.20;0.20;;;;;;;5.26;100.00;93008.09;5052188;28;20207;-79
2023/12/22 10:08:11;;;;;;;0.22;0.22;;;;;;;5.23;100.00;93014.13;5052024;28;20265;-81
2023/12/22 10:10:39;;;;;;;0.22;0.22;;;;;;;5.55;100.00;92999.84;5041392;28;20228;-82
2023/12/22 10:13:09;;;;;;;0.30;0.30;;;;;;;5.79;100.00;93000.94;5049827;28;20204;-82
2023/12/22 10:15:40;;;;;;;0.75;0.75;;;;;;;5.27;100.00;93004.31;5051972;28;20254;-80
2023/12/22 10:18:07;;;;;;;0.57;0.57;;;;;;;5.42;100.00;93005.56;5051538;28;20509;-81
2023/12/22 10:20:36;;;;;;;4.32;1.50;;;;;;;5.79;100.00;92995.56;5051849;28;20571;-80
2023/12/22 10:23:05;;;;;;;0.70;0.70;;;;;;;6.03;100.00;92971.38;5051199;28;20217;-80
2023/12/22 10:25:32;;;;;;;0.20;0.20;;;;;;;6.49;100.00;92961.16;5051643;28;20406;-81
2023/12/22 10:27:59;;;;;;;0.40;0.40;;;;;;;6.79;100.00;92965.06;5051400;28;20280;-82
2023/12/22 10:30:29;;;;;;;0.93;0.93;;;;;;;6.78;100.00;92968.88;5051568;28;20247;-81
2023/12/22 10:32:55;;;;;;;2.55;0.70;;;;;;;7.10;100.00;92953.56;5031471;28;20582;-81
2023/12/22 10:35:23;;;;;;;0.90;0.90;;;;;;;7.12;100.00;92941.31;5044594;28;20204;-79
2023/12/22 10:37:53;;;;;;;0.40;0.40;;;;;;;7.24;100.00;92956.63;5033164;28;20215;-79
2023/12/22 10:40:21;;;;;;;0.80;0.80;;;;;;;7.01;100.00;92961.78;5051259;28;20222;-82
2023/12/22 10:42:49;;;;;;;1.55;1.45;;;;;;;7.12;100.00;92954.75;5048959;28;20609;-82
2023/12/22 10:45:18;;;;;;;2.30;1.45;;;;;;;7.12;100.00;92933.22;5048596;28;20199;-81
2023/12/22 10:47:46;;;;;;;0.55;0.55;;;;;;;7.12;100.00;92935.13;5050594;28;20212;-81
2023/12/22 10:50:14;;;;;;;0.30;0.30;;;;;;;7.09;100.00;92928.56;5050651;28;20207;-79
2023/12/22 10:52:41;;;;;;;0.80;0.80;;;;;;;6.94;100.00;92917.78;5050932;28;20299;-81
2023/12/22 10:55:08;;;;;;;0.80;0.80;;;;;;;7.24;100.00;92916.22;5050702;28;20204;-81
2023/12/22 10:57:38;;;;;;;1.45;1.00;;;;;;;7.48;100.00;92924.09;5050356;28;20215;-82
2023/12/22 11:00:08;;;;;;;1.48;1.48;;;;;;;7.46;100.00;92917.50;5050808;28;20575;-79
2023/12/22 11:02:36;;;;;;;0.38;0.38;;;;;;;7.26;100.00;92918.53;5050876;28;20265;-81
2023/12/22 11:05:05;;;;;;;1.13;1.13;;;;;;;7.21;100.00;92916.13;5050989;28;20697;-81
2023/12/22 11:07:34;;;;;;;0.88;0.88;;;;;;;7.31;100.00;92915.59;5049148;28;20212;-80
2023/12/22 11:10:05;;;;;;;0.55;0.55;;;;;;;7.17;100.00;92904.47;5046109;28;20196;-82
2023/12/22 11:12:34;;;;;;;1.90;1.75;;;;;;;6.91;100.00;92902.31;5046336;28;20212;-82
2023/12/22 11:15:03;;;;;;;2.33;1.48;;;;;;;7.04;100.00;92891.13;5045557;28;20199;-81
2023/12/22 11:17:31;;;;;;;0.50;0.50;;;;;;;7.28;100.00;92870.50;5045243;28;20241;-81
2023/12/22 11:19:59;;;;;;;0.68;0.68;;;;;;;7.51;100.00;92870.66;5050860;28;20224;-82
2023/12/22 11:22:27;;;;;;;0.52;0.52;;;;;;;7.84;100.00;92844.81;5043434;28;20220;-80
2023/12/22 11:24:56;;;;;;;1.10;1.10;;;;;;;8.43;100.00;92851.78;5043077;28;20215;-80
2023/12/22 11:27:26;;;;;;;1.85;1.30;;;;;;;8.30;100.00;92861.13;5044340;28;20212;-79
2023/12/22 11:29:54;;;;;;;0.40;0.40;;;;;;;8.27;100.00;92869.94;5044051;28;20204;-81
2023/12/22 11:32:24;;;;;;;0.57;0.57;;;;;;;8.64;95.42;92861.38;5047618;28;20254;-81
2023/12/22 11:34:53;;;;;;;0.20;0.20;;;;;;;8.85;91.56;92877.97;5048534;28;20211;-79
2023/12/22 11:37:25;;;;;;;0.20;0.20;;;;;;;8.99;89.86;92872.81;5049832;28;20219;-79
2023/12/22 11:39:52;;;;;;;0.30;0.30;;;;;;;8.85;87.55;92872.56;5050753;28;20521;-81